Weather at Maverick Heliport [CLOSED]

Public forecast

Using degrees Fahrenheit for public forecast. Weather courtesy of forecast.io.

Closest aviation weather report (METAR) to Maverick Heliport

Closest report is Henderson Executive Airport, 3.3 nm (6.1 km) NE. Retrieved 2021/06/25 01:56 UTC (50 minutes ago):

KHND 250156Z 15007KT 10SM CLR 33/11 A2990 RMK AO2 SLP111 T03330106

Closest aviation forecast (TAF) to Maverick Heliport

Closest forecast is Henderson Executive Airport, 3.3 nm (6.1 km) NE. Retrieved 2021-06-25 00:22 UTC (2 hours ago):

TAF KHND 242320Z 2500/2524 17011KT P6SM SCT100 FM250400 19008KT P6SM SKC FM251800 VRB05KT P6SM SKC